sensor_id;sensor_type;location;lat;lon;timestamp;P1;durP1;ratioP1;P2;durP2;ratioP2
25023;SDS011;13033;50.936;5.334;2024-01-07T00:01:57;44.88;;;22.60;;
25023;SDS011;13033;50.936;5.334;2024-01-07T00:04:23;44.72;;;22.35;;
25023;SDS011;13033;50.936;5.334;2024-01-07T00:06:48;42.10;;;22.90;;
25023;SDS011;13033;50.936;5.334;2024-01-07T00:09:15;45.65;;;23.05;;
25023;SDS011;13033;50.936;5.334;2024-01-07T00:11:41;46.58;;;23.25;;
25023;SDS011;13033;50.936;5.334;2024-01-07T00:14:08;43.95;;;22.98;;
25023;SDS011;13033;50.936;5.334;2024-01-07T00:16:34;43.92;;;22.08;;
25023;SDS011;13033;50.936;5.334;2024-01-07T00:19:00;43.97;;;21.98;;
25023;SDS011;13033;50.936;5.334;2024-01-07T00:21:26;46.20;;;22.60;;
25023;SDS011;13033;50.936;5.334;2024-01-07T00:23:52;39.58;;;22.05;;
25023;SDS011;13033;50.936;5.334;2024-01-07T00:26:17;42.38;;;22.83;;
25023;SDS011;13033;50.936;5.334;2024-01-07T00:28:43;44.45;;;22.83;;
25023;SDS011;13033;50.936;5.334;2024-01-07T00:31:10;45.08;;;22.60;;
25023;SDS011;13033;50.936;5.334;2024-01-07T00:33:37;47.60;;;23.50;;
25023;SDS011;13033;50.936;5.334;2024-01-07T00:36:04;45.63;;;22.88;;
25023;SDS011;13033;50.936;5.334;2024-01-07T00:38:32;44.58;;;22.42;;
25023;SDS011;13033;50.936;5.334;2024-01-07T00:40:58;45.30;;;23.83;;
25023;SDS011;13033;50.936;5.334;2024-01-07T00:43:23;42.33;;;22.85;;
25023;SDS011;13033;50.936;5.334;2024-01-07T00:45:49;47.28;;;24.08;;
25023;SDS011;13033;50.936;5.334;2024-01-07T00:48:15;43.35;;;22.63;;
25023;SDS011;13033;50.936;5.334;2024-01-07T00:50:42;53.47;;;24.52;;
25023;SDS011;13033;50.936;5.334;2024-01-07T00:53:08;41.90;;;23.02;;
25023;SDS011;13033;50.936;5.334;2024-01-07T00:55:35;48.05;;;24.45;;
25023;SDS011;13033;50.936;5.334;2024-01-07T00:58:01;39.78;;;21.17;;
25023;SDS011;13033;50.936;5.334;2024-01-07T01:00:27;42.63;;;21.38;;
25023;SDS011;13033;50.936;5.334;2024-01-07T01:02:53;45.55;;;22.70;;
25023;SDS011;13033;50.936;5.334;2024-01-07T01:05:19;44.03;;;21.95;;
25023;SDS011;13033;50.936;5.334;2024-01-07T01:07:46;42.30;;;22.13;;
25023;SDS011;13033;50.936;5.334;2024-01-07T01:10:12;41.33;;;20.58;;
25023;SDS011;13033;50.936;5.334;2024-01-07T01:12:42;40.00;;;19.95;;
25023;SDS011;13033;50.936;5.334;2024-01-07T01:15:08;37.45;;;20.48;;
25023;SDS011;13033;50.936;5.334;2024-01-07T01:17:34;43.75;;;21.85;;
25023;SDS011;13033;50.936;5.334;2024-01-07T01:19:59;40.13;;;21.27;;
25023;SDS011;13033;50.936;5.334;2024-01-07T01:22:26;42.30;;;21.75;;
25023;SDS011;13033;50.936;5.334;2024-01-07T01:24:51;44.38;;;21.70;;
25023;SDS011;13033;50.936;5.334;2024-01-07T01:27:19;45.13;;;23.10;;
25023;SDS011;13033;50.936;5.334;2024-01-07T01:29:44;45.15;;;21.83;;
25023;SDS011;13033;50.936;5.334;2024-01-07T01:32:10;44.00;;;22.70;;
25023;SDS011;13033;50.936;5.334;2024-01-07T01:34:36;44.78;;;22.05;;
25023;SDS011;13033;50.936;5.334;2024-01-07T01:37:02;44.10;;;22.50;;
25023;SDS011;13033;50.936;5.334;2024-01-07T01:39:28;44.25;;;21.90;;
25023;SDS011;13033;50.936;5.334;2024-01-07T01:41:54;43.92;;;22.27;;
25023;SDS011;13033;50.936;5.334;2024-01-07T01:44:20;42.90;;;22.30;;
25023;SDS011;13033;50.936;5.334;2024-01-07T01:46:46;44.65;;;20.13;;
25023;SDS011;13033;50.936;5.334;2024-01-07T01:49:13;41.72;;;20.48;;
25023;SDS011;13033;50.936;5.334;2024-01-07T01:51:39;41.90;;;20.65;;
25023;SDS011;13033;50.936;5.334;2024-01-07T01:54:05;41.20;;;20.35;;
25023;SDS011;13033;50.936;5.334;2024-01-07T01:56:32;35.90;;;19.13;;
25023;SDS011;13033;50.936;5.334;2024-01-07T01:59:01;35.83;;;18.50;;
25023;SDS011;13033;50.936;5.334;2024-01-07T02:01:27;36.33;;;17.98;;
25023;SDS011;13033;50.936;5.334;2024-01-07T02:03:54;35.15;;;18.70;;
25023;SDS011;13033;50.936;5.334;2024-01-07T02:06:20;32.80;;;17.63;;
25023;SDS011;13033;50.936;5.334;2024-01-07T02:08:46;36.28;;;18.55;;
25023;SDS011;13033;50.936;5.334;2024-01-07T02:11:22;33.55;;;17.33;;
25023;SDS011;13033;50.936;5.334;2024-01-07T02:13:48;34.03;;;17.42;;
25023;SDS011;13033;50.936;5.334;2024-01-07T02:16:14;35.33;;;17.42;;
25023;SDS011;13033;50.936;5.334;2024-01-07T02:18:41;35.78;;;17.73;;
25023;SDS011;13033;50.936;5.334;2024-01-07T02:21:23;34.83;;;17.25;;
25023;SDS011;13033;50.936;5.334;2024-01-07T02:23:48;37.08;;;19.25;;
25023;SDS011;13033;50.936;5.334;2024-01-07T02:26:15;35.75;;;18.80;;
25023;SDS011;13033;50.936;5.334;2024-01-07T02:28:41;37.00;;;19.38;;
25023;SDS011;13033;50.936;5.334;2024-01-07T02:31:08;37.63;;;19.58;;
25023;SDS011;13033;50.936;5.334;2024-01-07T02:33:35;39.38;;;19.38;;
25023;SDS011;13033;50.936;5.334;2024-01-07T02:36:01;39.08;;;20.20;;
25023;SDS011;13033;50.936;5.334;2024-01-07T02:38:26;39.10;;;20.20;;
25023;SDS011;13033;50.936;5.334;2024-01-07T02:40:53;42.60;;;21.10;;
25023;SDS011;13033;50.936;5.334;2024-01-07T02:43:19;40.75;;;21.88;;
25023;SDS011;13033;50.936;5.334;2024-01-07T02:45:46;45.78;;;22.30;;
25023;SDS011;13033;50.936;5.334;2024-01-07T02:48:13;40.80;;;20.70;;
25023;SDS011;13033;50.936;5.334;2024-01-07T02:50:39;47.65;;;23.90;;
25023;SDS011;13033;50.936;5.334;2024-01-07T02:53:04;45.00;;;21.92;;
25023;SDS011;13033;50.936;5.334;2024-01-07T02:55:30;44.50;;;21.75;;
25023;SDS011;13033;50.936;5.334;2024-01-07T02:57:56;42.53;;;21.15;;
25023;SDS011;13033;50.936;5.334;2024-01-07T03:00:21;44.15;;;20.80;;
25023;SDS011;13033;50.936;5.334;2024-01-07T03:02:49;42.40;;;21.50;;
25023;SDS011;13033;50.936;5.334;2024-01-07T03:05:14;43.60;;;22.05;;
25023;SDS011;13033;50.936;5.334;2024-01-07T03:07:40;41.05;;;20.80;;
25023;SDS011;13033;50.936;5.334;2024-01-07T03:10:06;37.78;;;20.85;;
25023;SDS011;13033;50.936;5.334;2024-01-07T03:12:32;40.67;;;21.25;;
25023;SDS011;13033;50.936;5.334;2024-01-07T03:14:57;42.30;;;21.15;;
25023;SDS011;13033;50.936;5.334;2024-01-07T03:17:23;42.90;;;21.17;;
25023;SDS011;13033;50.936;5.334;2024-01-07T03:19:49;44.60;;;21.88;;
25023;SDS011;13033;50.936;5.334;2024-01-07T03:22:16;41.95;;;21.02;;
25023;SDS011;13033;50.936;5.334;2024-01-07T03:24:43;44.70;;;21.95;;
25023;SDS011;13033;50.936;5.334;2024-01-07T03:27:10;45.78;;;23.00;;
25023;SDS011;13033;50.936;5.334;2024-01-07T03:29:39;45.33;;;21.58;;
25023;SDS011;13033;50.936;5.334;2024-01-07T03:32:05;46.08;;;22.90;;
25023;SDS011;13033;50.936;5.334;2024-01-07T03:34:31;46.28;;;23.42;;
25023;SDS011;13033;50.936;5.334;2024-01-07T03:36:56;46.75;;;23.40;;
25023;SDS011;13033;50.936;5.334;2024-01-07T03:39:22;43.13;;;20.98;;
25023;SDS011;13033;50.936;5.334;2024-01-07T03:41:48;43.67;;;22.02;;
25023;SDS011;13033;50.936;5.334;2024-01-07T03:44:14;49.63;;;23.13;;
25023;SDS011;13033;50.936;5.334;2024-01-07T03:46:39;42.00;;;21.88;;
25023;SDS011;13033;50.936;5.334;2024-01-07T03:49:07;42.50;;;21.40;;
25023;SDS011;13033;50.936;5.334;2024-01-07T03:51:32;43.38;;;22.05;;
25023;SDS011;13033;50.936;5.334;2024-01-07T03:53:58;42.97;;;22.30;;
25023;SDS011;13033;50.936;5.334;2024-01-07T03:56:23;44.53;;;22.30;;
25023;SDS011;13033;50.936;5.334;2024-01-07T03:58:49;45.22;;;22.13;;
25023;SDS011;13033;50.936;5.334;2024-01-07T04:01:16;41.95;;;21.67;;
25023;SDS011;13033;50.936;5.334;2024-01-07T04:03:48;43.22;;;21.77;;
25023;SDS011;13033;50.936;5.334;2024-01-07T04:06:15;44.72;;;21.25;;
25023;SDS011;13033;50.936;5.334;2024-01-07T04:08:41;43.08;;;20.88;;
25023;SDS011;13033;50.936;5.334;2024-01-07T04:11:06;43.78;;;20.35;;
25023;SDS011;13033;50.936;5.334;2024-01-07T04:13:33;41.95;;;19.45;;
25023;SDS011;13033;50.936;5.334;2024-01-07T04:15:59;38.55;;;18.48;;
25023;SDS011;13033;50.936;5.334;2024-01-07T04:18:26;38.78;;;18.33;;
25023;SDS011;13033;50.936;5.334;2024-01-07T04:20:51;40.22;;;18.02;;
25023;SDS011;13033;50.936;5.334;2024-01-07T04:23:17;40.28;;;18.42;;
25023;SDS011;13033;50.936;5.334;2024-01-07T04:25:43;40.90;;;19.05;;
25023;SDS011;13033;50.936;5.334;2024-01-07T04:28:10;36.92;;;17.85;;
25023;SDS011;13033;50.936;5.334;2024-01-07T04:30:36;40.25;;;18.13;;
25023;SDS011;13033;50.936;5.334;2024-01-07T04:33:01;39.85;;;18.00;;
25023;SDS011;13033;50.936;5.334;2024-01-07T04:35:27;40.78;;;18.58;;
25023;SDS011;13033;50.936;5.334;2024-01-07T04:37:55;36.70;;;16.90;;
25023;SDS011;13033;50.936;5.334;2024-01-07T04:40:20;39.55;;;16.98;;
25023;SDS011;13033;50.936;5.334;2024-01-07T04:42:46;41.08;;;18.08;;
25023;SDS011;13033;50.936;5.334;2024-01-07T04:45:12;39.50;;;17.50;;
25023;SDS011;13033;50.936;5.334;2024-01-07T04:47:38;37.78;;;18.17;;
25023;SDS011;13033;50.936;5.334;2024-01-07T04:50:04;38.65;;;17.17;;
25023;SDS011;13033;50.936;5.334;2024-01-07T04:52:33;38.97;;;17.20;;
25023;SDS011;13033;50.936;5.334;2024-01-07T04:54:58;39.90;;;18.35;;
25023;SDS011;13033;50.936;5.334;2024-01-07T04:57:24;38.53;;;17.95;;
25023;SDS011;13033;50.936;5.334;2024-01-07T04:59:50;42.05;;;16.95;;
25023;SDS011;13033;50.936;5.334;2024-01-07T05:02:17;37.33;;;16.75;;
25023;SDS011;13033;50.936;5.334;2024-01-07T05:04:44;34.58;;;16.38;;
25023;SDS011;13033;50.936;5.334;2024-01-07T05:07:11;37.80;;;17.13;;
25023;SDS011;13033;50.936;5.334;2024-01-07T05:09:38;36.22;;;17.35;;
25023;SDS011;13033;50.936;5.334;2024-01-07T05:12:05;40.05;;;18.63;;
25023;SDS011;13033;50.936;5.334;2024-01-07T05:14:32;41.55;;;18.67;;
25023;SDS011;13033;50.936;5.334;2024-01-07T05:16:59;39.22;;;17.98;;
25023;SDS011;13033;50.936;5.334;2024-01-07T05:19:26;41.30;;;18.45;;
25023;SDS011;13033;50.936;5.334;2024-01-07T05:21:52;43.25;;;19.17;;
25023;SDS011;13033;50.936;5.334;2024-01-07T05:24:18;41.45;;;18.92;;
25023;SDS011;13033;50.936;5.334;2024-01-07T05:26:44;42.72;;;18.63;;
25023;SDS011;13033;50.936;5.334;2024-01-07T05:29:10;46.05;;;19.75;;
25023;SDS011;13033;50.936;5.334;2024-01-07T05:31:39;39.80;;;19.27;;
25023;SDS011;13033;50.936;5.334;2024-01-07T05:34:05;42.20;;;18.85;;
25023;SDS011;13033;50.936;5.334;2024-01-07T05:36:32;41.17;;;18.50;;
25023;SDS011;13033;50.936;5.334;2024-01-07T05:38:58;41.72;;;18.33;;
25023;SDS011;13033;50.936;5.334;2024-01-07T05:41:24;45.58;;;18.98;;
25023;SDS011;13033;50.936;5.334;2024-01-07T05:43:50;43.38;;;19.38;;
25023;SDS011;13033;50.936;5.334;2024-01-07T05:46:17;43.47;;;17.40;;
25023;SDS011;13033;50.936;5.334;2024-01-07T05:48:43;40.53;;;17.95;;
25023;SDS011;13033;50.936;5.334;2024-01-07T05:51:12;40.30;;;18.38;;
25023;SDS011;13033;50.936;5.334;2024-01-07T05:53:39;36.70;;;17.00;;
25023;SDS011;13033;50.936;5.334;2024-01-07T05:56:05;36.60;;;15.68;;
25023;SDS011;13033;50.936;5.334;2024-01-07T05:58:31;34.38;;;16.55;;
25023;SDS011;13033;50.936;5.334;2024-01-07T06:00:57;35.13;;;16.77;;
25023;SDS011;13033;50.936;5.334;2024-01-07T06:03:25;38.67;;;18.05;;
25023;SDS011;13033;50.936;5.334;2024-01-07T06:05:52;40.80;;;16.63;;
25023;SDS011;13033;50.936;5.334;2024-01-07T06:08:18;36.67;;;17.30;;
25023;SDS011;13033;50.936;5.334;2024-01-07T06:10:43;32.20;;;15.80;;
25023;SDS011;13033;50.936;5.334;2024-01-07T06:13:09;33.97;;;15.98;;
25023;SDS011;13033;50.936;5.334;2024-01-07T06:15:35;35.78;;;16.00;;
25023;SDS011;13033;50.936;5.334;2024-01-07T06:18:01;33.63;;;15.85;;
25023;SDS011;13033;50.936;5.334;2024-01-07T06:20:27;31.30;;;14.75;;
25023;SDS011;13033;50.936;5.334;2024-01-07T06:22:53;30.80;;;15.48;;
25023;SDS011;13033;50.936;5.334;2024-01-07T06:25:19;31.48;;;15.68;;
25023;SDS011;13033;50.936;5.334;2024-01-07T06:27:45;36.92;;;17.05;;
25023;SDS011;13033;50.936;5.334;2024-01-07T06:30:11;32.25;;;16.38;;
25023;SDS011;13033;50.936;5.334;2024-01-07T06:32:37;35.60;;;16.35;;
25023;SDS011;13033;50.936;5.334;2024-01-07T06:35:03;31.15;;;15.57;;
25023;SDS011;13033;50.936;5.334;2024-01-07T06:37:29;31.83;;;15.88;;
25023;SDS011;13033;50.936;5.334;2024-01-07T06:39:55;31.00;;;15.57;;
25023;SDS011;13033;50.936;5.334;2024-01-07T06:42:23;26.85;;;15.38;;
25023;SDS011;13033;50.936;5.334;2024-01-07T06:44:49;28.17;;;14.88;;
25023;SDS011;13033;50.936;5.334;2024-01-07T06:47:16;28.88;;;14.50;;
25023;SDS011;13033;50.936;5.334;2024-01-07T06:49:41;27.15;;;14.55;;
25023;SDS011;13033;50.936;5.334;2024-01-07T06:52:07;29.52;;;15.82;;
25023;SDS011;13033;50.936;5.334;2024-01-07T06:54:33;27.27;;;14.93;;
25023;SDS011;13033;50.936;5.334;2024-01-07T06:56:59;31.00;;;15.73;;
25023;SDS011;13033;50.936;5.334;2024-01-07T06:59:26;27.70;;;14.25;;
25023;SDS011;13033;50.936;5.334;2024-01-07T07:01:51;32.78;;;14.02;;
25023;SDS011;13033;50.936;5.334;2024-01-07T07:04:18;30.42;;;16.00;;
25023;SDS011;13033;50.936;5.334;2024-01-07T07:06:44;27.15;;;14.45;;
25023;SDS011;13033;50.936;5.334;2024-01-07T07:09:10;25.70;;;13.63;;
25023;SDS011;13033;50.936;5.334;2024-01-07T07:11:37;26.25;;;13.55;;
25023;SDS011;13033;50.936;5.334;2024-01-07T07:14:03;27.88;;;13.77;;
25023;SDS011;13033;50.936;5.334;2024-01-07T07:16:29;24.60;;;13.00;;
25023;SDS011;13033;50.936;5.334;2024-01-07T07:18:54;25.67;;;13.73;;
25023;SDS011;13033;50.936;5.334;2024-01-07T07:21:20;24.08;;;13.32;;
25023;SDS011;13033;50.936;5.334;2024-01-07T07:23:46;26.73;;;13.43;;
25023;SDS011;13033;50.936;5.334;2024-01-07T07:26:11;28.38;;;13.50;;
25023;SDS011;13033;50.936;5.334;2024-01-07T07:28:37;28.20;;;13.82;;
25023;SDS011;13033;50.936;5.334;2024-01-07T07:31:03;28.13;;;13.93;;
25023;SDS011;13033;50.936;5.334;2024-01-07T07:33:28;27.83;;;14.77;;
25023;SDS011;13033;50.936;5.334;2024-01-07T07:35:54;27.90;;;15.27;;
25023;SDS011;13033;50.936;5.334;2024-01-07T07:38:20;31.75;;;15.60;;
25023;SDS011;13033;50.936;5.334;2024-01-07T07:40:45;28.17;;;15.88;;
25023;SDS011;13033;50.936;5.334;2024-01-07T07:43:17;29.75;;;15.85;;
25023;SDS011;13033;50.936;5.334;2024-01-07T07:45:46;30.60;;;16.65;;
25023;SDS011;13033;50.936;5.334;2024-01-07T07:48:12;29.55;;;16.88;;
25023;SDS011;13033;50.936;5.334;2024-01-07T07:50:37;31.60;;;16.10;;
25023;SDS011;13033;50.936;5.334;2024-01-07T07:53:03;27.92;;;15.90;;
25023;SDS011;13033;50.936;5.334;2024-01-07T07:55:29;32.20;;;16.67;;
25023;SDS011;13033;50.936;5.334;2024-01-07T07:57:55;30.23;;;15.43;;
25023;SDS011;13033;50.936;5.334;2024-01-07T08:00:20;34.30;;;16.25;;
25023;SDS011;13033;50.936;5.334;2024-01-07T08:02:46;30.83;;;15.75;;
25023;SDS011;13033;50.936;5.334;2024-01-07T08:05:12;29.50;;;16.40;;
25023;SDS011;13033;50.936;5.334;2024-01-07T08:07:38;33.97;;;17.20;;
25023;SDS011;13033;50.936;5.334;2024-01-07T08:10:04;28.77;;;15.68;;
25023;SDS011;13033;50.936;5.334;2024-01-07T08:12:31;31.50;;;17.33;;
25023;SDS011;13033;50.936;5.334;2024-01-07T08:14:56;31.20;;;15.93;;
25023;SDS011;13033;50.936;5.334;2024-01-07T08:17:22;36.72;;;18.27;;
25023;SDS011;13033;50.936;5.334;2024-01-07T08:19:48;27.95;;;15.90;;
25023;SDS011;13033;50.936;5.334;2024-01-07T08:22:13;30.13;;;16.23;;
25023;SDS011;13033;50.936;5.334;2024-01-07T08:24:39;30.95;;;16.52;;
25023;SDS011;13033;50.936;5.334;2024-01-07T08:27:05;30.38;;;16.98;;
25023;SDS011;13033;50.936;5.334;2024-01-07T08:29:31;31.15;;;16.90;;
25023;SDS011;13033;50.936;5.334;2024-01-07T08:31:57;29.38;;;15.07;;
25023;SDS011;13033;50.936;5.334;2024-01-07T08:34:23;30.13;;;16.15;;
25023;SDS011;13033;50.936;5.334;2024-01-07T08:36:49;29.88;;;16.42;;
25023;SDS011;13033;50.936;5.334;2024-01-07T08:39:14;30.33;;;15.77;;
25023;SDS011;13033;50.936;5.334;2024-01-07T08:41:40;29.40;;;16.15;;
25023;SDS011;13033;50.936;5.334;2024-01-07T08:44:06;25.83;;;15.07;;
25023;SDS011;13033;50.936;5.334;2024-01-07T08:46:34;27.23;;;15.63;;
25023;SDS011;13033;50.936;5.334;2024-01-07T08:49:01;25.85;;;15.73;;
25023;SDS011;13033;50.936;5.334;2024-01-07T08:51:26;27.60;;;16.27;;
25023;SDS011;13033;50.936;5.334;2024-01-07T08:53:52;28.35;;;15.80;;
25023;SDS011;13033;50.936;5.334;2024-01-07T08:56:18;31.40;;;16.15;;
25023;SDS011;13033;50.936;5.334;2024-01-07T08:58:43;29.90;;;15.73;;
25023;SDS011;13033;50.936;5.334;2024-01-07T09:01:09;30.00;;;15.40;;
25023;SDS011;13033;50.936;5.334;2024-01-07T09:03:35;31.02;;;16.52;;
25023;SDS011;13033;50.936;5.334;2024-01-07T09:06:00;30.05;;;16.33;;
25023;SDS011;13033;50.936;5.334;2024-01-07T09:08:26;29.52;;;16.63;;
25023;SDS011;13033;50.936;5.334;2024-01-07T09:10:52;29.67;;;16.20;;
25023;SDS011;13033;50.936;5.334;2024-01-07T09:13:17;32.35;;;17.48;;
25023;SDS011;13033;50.936;5.334;2024-01-07T09:15:43;31.30;;;16.50;;
25023;SDS011;13033;50.936;5.334;2024-01-07T09:18:09;28.85;;;16.55;;
25023;SDS011;13033;50.936;5.334;2024-01-07T09:20:34;29.83;;;16.50;;
25023;SDS011;13033;50.936;5.334;2024-01-07T09:23:00;30.67;;;15.57;;
25023;SDS011;13033;50.936;5.334;2024-01-07T09:25:26;27.65;;;16.05;;
25023;SDS011;13033;50.936;5.334;2024-01-07T09:27:52;29.25;;;15.57;;
25023;SDS011;13033;50.936;5.334;2024-01-07T09:30:17;31.33;;;15.85;;
25023;SDS011;13033;50.936;5.334;2024-01-07T09:32:43;32.80;;;16.90;;
25023;SDS011;13033;50.936;5.334;2024-01-07T09:35:09;33.33;;;17.25;;
25023;SDS011;13033;50.936;5.334;2024-01-07T09:37:35;32.85;;;16.48;;
25023;SDS011;13033;50.936;5.334;2024-01-07T09:40:01;32.10;;;16.77;;
25023;SDS011;13033;50.936;5.334;2024-01-07T09:42:29;37.20;;;17.33;;
25023;SDS011;13033;50.936;5.334;2024-01-07T09:44:55;35.30;;;18.73;;
25023;SDS011;13033;50.936;5.334;2024-01-07T09:47:21;32.03;;;16.42;;
25023;SDS011;13033;50.936;5.334;2024-01-07T09:49:48;34.75;;;17.92;;
25023;SDS011;13033;50.936;5.334;2024-01-07T09:52:16;34.00;;;17.38;;
25023;SDS011;13033;50.936;5.334;2024-01-07T09:54:45;34.08;;;17.65;;
25023;SDS011;13033;50.936;5.334;2024-01-07T09:57:16;37.50;;;18.50;;
25023;SDS011;13033;50.936;5.334;2024-01-07T09:59:41;32.33;;;17.27;;
25023;SDS011;13033;50.936;5.334;2024-01-07T10:02:07;34.47;;;17.58;;
25023;SDS011;13033;50.936;5.334;2024-01-07T10:04:34;29.95;;;17.05;;
25023;SDS011;13033;50.936;5.334;2024-01-07T10:07:00;33.08;;;17.27;;
25023;SDS011;13033;50.936;5.334;2024-01-07T10:09:29;31.33;;;16.52;;
25023;SDS011;13033;50.936;5.334;2024-01-07T10:11:58;29.13;;;15.98;;
25023;SDS011;13033;50.936;5.334;2024-01-07T10:14:23;30.85;;;17.80;;
25023;SDS011;13033;50.936;5.334;2024-01-07T10:16:51;29.13;;;16.70;;
25023;SDS011;13033;50.936;5.334;2024-01-07T10:19:23;34.95;;;17.42;;
25023;SDS011;13033;50.936;5.334;2024-01-07T10:22:00;30.27;;;17.13;;
25023;SDS011;13033;50.936;5.334;2024-01-07T10:24:36;31.33;;;16.98;;
25023;SDS011;13033;50.936;5.334;2024-01-07T10:27:03;33.53;;;17.25;;
25023;SDS011;13033;50.936;5.334;2024-01-07T10:29:30;35.15;;;17.00;;
25023;SDS011;13033;50.936;5.334;2024-01-07T10:32:00;33.17;;;17.20;;
25023;SDS011;13033;50.936;5.334;2024-01-07T10:34:33;30.10;;;16.77;;
25023;SDS011;13033;50.936;5.334;2024-01-07T10:37:01;30.90;;;17.00;;
25023;SDS011;13033;50.936;5.334;2024-01-07T10:39:28;30.95;;;16.98;;
25023;SDS011;13033;50.936;5.334;2024-01-07T10:41:55;30.05;;;17.15;;
25023;SDS011;13033;50.936;5.334;2024-01-07T10:44:25;30.67;;;16.60;;
25023;SDS011;13033;50.936;5.334;2024-01-07T10:46:58;29.08;;;16.70;;
25023;SDS011;13033;50.936;5.334;2024-01-07T10:49:25;28.00;;;16.17;;
25023;SDS011;13033;50.936;5.334;2024-01-07T10:52:04;28.23;;;16.40;;
25023;SDS011;13033;50.936;5.334;2024-01-07T10:54:32;28.73;;;16.10;;
25023;SDS011;13033;50.936;5.334;2024-01-07T10:59:54;27.40;;;16.33;;
25023;SDS011;13033;50.936;5.334;2024-01-07T11:02:22;27.60;;;16.05;;
25023;SDS011;13033;50.936;5.334;2024-01-07T11:05:09;30.42;;;17.05;;
25023;SDS011;13033;50.936;5.334;2024-01-07T11:07:43;28.27;;;16.30;;
25023;SDS011;13033;50.936;5.334;2024-01-07T11:10:12;28.98;;;16.50;;
25023;SDS011;13033;50.936;5.334;2024-01-07T11:12:43;34.35;;;18.20;;
25023;SDS011;13033;50.936;5.334;2024-01-07T11:15:08;30.15;;;17.25;;
25023;SDS011;13033;50.936;5.334;2024-01-07T11:20:04;33.03;;;18.08;;
25023;SDS011;13033;50.936;5.334;2024-01-07T11:22:30;34.35;;;17.65;;
25023;SDS011;13033;50.936;5.334;2024-01-07T11:24:58;34.83;;;18.88;;
25023;SDS011;13033;50.936;5.334;2024-01-07T11:27:26;32.97;;;17.95;;
25023;SDS011;13033;50.936;5.334;2024-01-07T11:29:56;34.10;;;17.95;;
25023;SDS011;13033;50.936;5.334;2024-01-07T11:32:29;30.73;;;17.15;;
25023;SDS011;13033;50.936;5.334;2024-01-07T11:37:23;31.30;;;16.65;;
25023;SDS011;13033;50.936;5.334;2024-01-07T11:39:50;31.60;;;17.15;;
25023;SDS011;13033;50.936;5.334;2024-01-07T11:42:20;30.25;;;15.93;;
25023;SDS011;13033;50.936;5.334;2024-01-07T11:44:51;28.42;;;16.67;;
25023;SDS011;13033;50.936;5.334;2024-01-07T11:47:21;30.10;;;16.75;;
25023;SDS011;13033;50.936;5.334;2024-01-07T11:49:48;28.83;;;17.23;;
25023;SDS011;13033;50.936;5.334;2024-01-07T11:52:14;27.63;;;16.98;;
25023;SDS011;13033;50.936;5.334;2024-01-07T11:54:40;32.60;;;17.55;;
25023;SDS011;13033;50.936;5.334;2024-01-07T11:57:07;27.55;;;15.68;;
25023;SDS011;13033;50.936;5.334;2024-01-07T11:59:34;30.45;;;16.92;;
25023;SDS011;13033;50.936;5.334;2024-01-07T12:02:00;29.75;;;16.40;;
25023;SDS011;13033;50.936;5.334;2024-01-07T12:04:26;27.70;;;15.95;;
25023;SDS011;13033;50.936;5.334;2024-01-07T12:06:53;27.63;;;15.55;;
25023;SDS011;13033;50.936;5.334;2024-01-07T12:09:18;28.65;;;16.30;;
25023;SDS011;13033;50.936;5.334;2024-01-07T12:11:45;28.60;;;16.08;;
25023;SDS011;13033;50.936;5.334;2024-01-07T12:14:11;28.33;;;15.80;;
25023;SDS011;13033;50.936;5.334;2024-01-07T12:16:37;25.90;;;15.15;;
25023;SDS011;13033;50.936;5.334;2024-01-07T12:19:03;26.52;;;15.10;;
25023;SDS011;13033;50.936;5.334;2024-01-07T12:21:29;26.02;;;14.68;;
25023;SDS011;13033;50.936;5.334;2024-01-07T12:23:55;30.00;;;14.65;;
25023;SDS011;13033;50.936;5.334;2024-01-07T12:26:25;27.23;;;14.07;;
25023;SDS011;13033;50.936;5.334;2024-01-07T12:28:57;25.08;;;12.82;;
25023;SDS011;13033;50.936;5.334;2024-01-07T12:31:28;24.05;;;13.45;;
25023;SDS011;13033;50.936;5.334;2024-01-07T12:33:57;22.38;;;13.50;;
25023;SDS011;13033;50.936;5.334;2024-01-07T12:36:23;21.17;;;13.93;;
25023;SDS011;13033;50.936;5.334;2024-01-07T12:38:49;22.17;;;13.15;;
25023;SDS011;13033;50.936;5.334;2024-01-07T12:41:21;24.33;;;13.30;;
25023;SDS011;13033;50.936;5.334;2024-01-07T12:43:47;22.73;;;14.38;;
25023;SDS011;13033;50.936;5.334;2024-01-07T12:46:12;22.73;;;13.30;;
25023;SDS011;13033;50.936;5.334;2024-01-07T12:48:38;22.33;;;14.25;;
25023;SDS011;13033;50.936;5.334;2024-01-07T12:51:04;21.88;;;13.98;;
25023;SDS011;13033;50.936;5.334;2024-01-07T12:53:30;20.42;;;12.57;;
25023;SDS011;13033;50.936;5.334;2024-01-07T12:55:55;21.10;;;13.50;;
25023;SDS011;13033;50.936;5.334;2024-01-07T12:58:21;20.20;;;13.63;;
25023;SDS011;13033;50.936;5.334;2024-01-07T13:00:47;22.20;;;13.48;;
25023;SDS011;13033;50.936;5.334;2024-01-07T13:03:13;20.92;;;12.68;;
25023;SDS011;13033;50.936;5.334;2024-01-07T13:05:45;23.70;;;11.95;;
25023;SDS011;13033;50.936;5.334;2024-01-07T13:08:15;19.90;;;11.93;;
25023;SDS011;13033;50.936;5.334;2024-01-07T13:10:47;19.05;;;12.25;;
25023;SDS011;13033;50.936;5.334;2024-01-07T13:13:14;17.38;;;11.25;;
25023;SDS011;13033;50.936;5.334;2024-01-07T13:15:41;17.88;;;10.95;;
25023;SDS011;13033;50.936;5.334;2024-01-07T13:18:07;20.10;;;12.35;;
25023;SDS011;13033;50.936;5.334;2024-01-07T13:20:33;18.42;;;12.35;;
25023;SDS011;13033;50.936;5.334;2024-01-07T13:23:00;15.25;;;10.55;;
25023;SDS011;13033;50.936;5.334;2024-01-07T13:25:26;16.83;;;10.95;;
25023;SDS011;13033;50.936;5.334;2024-01-07T13:27:53;17.02;;;10.45;;
25023;SDS011;13033;50.936;5.334;2024-01-07T13:30:19;20.27;;;11.25;;
25023;SDS011;13033;50.936;5.334;2024-01-07T13:32:44;22.95;;;12.20;;
25023;SDS011;13033;50.936;5.334;2024-01-07T13:35:10;17.52;;;11.02;;
25023;SDS011;13033;50.936;5.334;2024-01-07T13:37:38;17.52;;;11.32;;
25023;SDS011;13033;50.936;5.334;2024-01-07T13:40:09;19.60;;;11.98;;
25023;SDS011;13033;50.936;5.334;2024-01-07T13:42:36;18.20;;;11.18;;
25023;SDS011;13033;50.936;5.334;2024-01-07T13:45:02;18.73;;;11.95;;
25023;SDS011;13033;50.936;5.334;2024-01-07T13:47:29;17.83;;;12.18;;
25023;SDS011;13033;50.936;5.334;2024-01-07T13:49:55;19.52;;;12.13;;
25023;SDS011;13033;50.936;5.334;2024-01-07T13:52:21;20.75;;;12.35;;
25023;SDS011;13033;50.936;5.334;2024-01-07T13:54:46;19.95;;;11.98;;
25023;SDS011;13033;50.936;5.334;2024-01-07T13:57:12;20.52;;;12.10;;
25023;SDS011;13033;50.936;5.334;2024-01-07T13:59:38;19.23;;;12.30;;
25023;SDS011;13033;50.936;5.334;2024-01-07T14:02:05;19.48;;;12.77;;
25023;SDS011;13033;50.936;5.334;2024-01-07T14:04:32;19.20;;;12.48;;
25023;SDS011;13033;50.936;5.334;2024-01-07T14:06:58;18.77;;;11.98;;
25023;SDS011;13033;50.936;5.334;2024-01-07T14:09:23;19.27;;;12.77;;
25023;SDS011;13033;50.936;5.334;2024-01-07T14:11:49;22.02;;;12.13;;
25023;SDS011;13033;50.936;5.334;2024-01-07T14:14:15;20.63;;;11.98;;
25023;SDS011;13033;50.936;5.334;2024-01-07T14:16:41;19.85;;;12.15;;
25023;SDS011;13033;50.936;5.334;2024-01-07T14:19:07;19.00;;;11.82;;
25023;SDS011;13033;50.936;5.334;2024-01-07T14:21:32;18.85;;;12.30;;
25023;SDS011;13033;50.936;5.334;2024-01-07T14:23:58;18.08;;;11.82;;
25023;SDS011;13033;50.936;5.334;2024-01-07T14:26:24;22.27;;;11.60;;